Big Piney, WY weather

Big Piney-Marbleton Airport (AMOS), Big Piney, WY: 10/21/2017 03:53
Visibility10 statute milessun with a few clouds
View 7-Day Forecast
Area Summary
Sky/CloudsFew at 3300ft
Weather [last 24 hours]None
Pressure29.98 in.Hg (1015 hPa)
Dew Point18 °F (-7.8 °C)
Relative Humidity80.7 %
Temperature23 °F (-5 °C)blue thermometer
Wind Chill14.7 °F (-9.6 °C)
Reading TimeMinimum to Maximum Temperature
6-hr ending 10/20@23:5321.9 °F to 37.9 °F (-5.6 °C to 3.3 °C)
6-hr ending 10/20@17:5337.9 °F to 61 °F (3.3 °C to 16.1 °C)
6-hr ending 10/20@11:5330 °F to 61 °F (-1.1 °C to 16.1 °C)
6-hr ending 10/20@05:5332 °F to 41 °F (0 °C to 5 °C)
24-hr ending 10/21@00:5321.9 °F to 61 °F (-5.6 °C to 16.1 °C)
Wind6.9 MPH (6 KT) green arrow pointing 315 degrees
Wind FromNorthwest (320 Degrees)
Rolling 24-hr Peak Wind44.9 MPH (39 KT) on 10/20@12:27
Rolling 24-hr Peak Wind FromWest (260 Degrees)
Twilight Begins07:12Sunshine Yesterday
Sunrise07:40N/A
Sunset18:29
Twilight Ends18:57
METARKBPI 210953Z AUTO 32006KT 10SM FEW033 M05/M08 A2998 RMK AO2 SLP138 T10501078
Tags: